createdAt,value
2023-05-22T00:01:08.779Z,99919.34
2023-05-22T00:03:37.818Z,99924.84
2023-05-22T00:06:10.208Z,99908.69
2023-05-22T00:08:38.419Z,99920.63
2023-05-22T00:11:07.408Z,99919.63
2023-05-22T00:13:37.316Z,99921.28
2023-05-22T00:16:11.687Z,99926.00
2023-05-22T00:18:42.723Z,99918.81
2023-05-22T00:21:10.860Z,99919.03
2023-05-22T00:23:41.229Z,99904.59
2023-05-22T00:26:09.108Z,99914.28
2023-05-22T00:28:37.315Z,99911.06
2023-05-22T00:31:07.873Z,99901.16
2023-05-22T00:33:41.617Z,99887.06
2023-05-22T00:36:12.149Z,99900.81
2023-05-22T00:38:44.142Z,99892.56
2023-05-22T00:41:12.090Z,99905.47
2023-05-22T00:43:42.099Z,99896.22
2023-05-22T00:46:12.877Z,99904.72
2023-05-22T00:48:44.460Z,99903.38
2023-05-22T00:51:15.440Z,99897.66
2023-05-22T00:53:56.207Z,99903.47
2023-05-22T00:56:24.569Z,99903.09
2023-05-22T01:01:42.168Z,99909.66
2023-05-22T01:04:13.457Z,99898.44
2023-05-22T01:06:47.644Z,99901.75
2023-05-22T01:09:25.372Z,99902.88
2023-05-22T01:12:03.155Z,99906.50
2023-05-22T01:14:41.871Z,99915.38
2023-05-22T01:17:24.584Z,99914.69
2023-05-22T01:20:07.282Z,99920.44
2023-05-22T01:23:03.069Z,99912.22
2023-05-22T01:25:55.311Z,99919.00
2023-05-22T01:28:45.976Z,99909.94
2023-05-22T01:31:19.472Z,99916.09
2023-05-22T01:33:50.416Z,99895.22
2023-05-22T01:36:23.991Z,99919.44
2023-05-22T01:38:56.432Z,99917.47
2023-05-22T01:41:25.882Z,99915.50
2023-05-22T01:43:58.742Z,99914.88
2023-05-22T01:46:37.184Z,99910.25
2023-05-22T01:49:06.588Z,99896.34
2023-05-22T01:51:46.561Z,99910.66
2023-05-22T01:54:27.462Z,99918.38
2023-05-22T01:57:07.308Z,99909.84
2023-05-22T01:59:48.564Z,99916.16
2023-05-22T02:02:23.160Z,99908.44
2023-05-22T02:05:00.087Z,99919.75
2023-05-22T02:07:34.708Z,99912.91
2023-05-22T02:10:08.257Z,99918.34
2023-05-22T02:12:37.888Z,99899.72
2023-05-22T02:15:10.594Z,99915.09
2023-05-22T02:17:41.478Z,99918.69
2023-05-22T02:20:15.475Z,99914.00
2023-05-22T02:22:44.925Z,99910.47
2023-05-22T02:25:15.149Z,99920.34
2023-05-22T02:27:45.757Z,99917.31
2023-05-22T02:30:19.702Z,99920.56
2023-05-22T02:32:53.765Z,99907.16
2023-05-22T02:35:22.761Z,99917.88
2023-05-22T02:37:50.807Z,99912.66
2023-05-22T02:40:19.084Z,99911.25
2023-05-22T02:42:49.278Z,99915.66
2023-05-22T02:45:18.247Z,99918.69
2023-05-22T02:47:46.825Z,99914.84
2023-05-22T02:50:17.693Z,99915.63
2023-05-22T02:52:46.539Z,99909.56
2023-05-22T02:55:16.093Z,99902.44
2023-05-22T02:57:46.759Z,99921.97
2023-05-22T03:00:15.269Z,99910.66
2023-05-22T03:02:44.962Z,99918.66
2023-05-22T03:05:18.266Z,99913.97
2023-05-22T03:07:48.994Z,99917.53
2023-05-22T03:10:17.656Z,99916.44
2023-05-22T03:12:48.324Z,99916.16
2023-05-22T03:15:20.840Z,99926.84
2023-05-22T03:17:48.732Z,99920.53
2023-05-22T03:20:17.111Z,99919.19
2023-05-22T03:22:45.345Z,99923.56
2023-05-22T03:25:15.524Z,99924.38
2023-05-22T03:27:43.375Z,99918.34
2023-05-22T03:30:12.467Z,99921.38
2023-05-22T03:32:40.996Z,99926.59
2023-05-22T03:35:15.773Z,99931.22
2023-05-22T03:37:43.580Z,99933.13
2023-05-22T03:40:12.429Z,99936.44
2023-05-22T03:42:42.432Z,99924.38
2023-05-22T03:45:12.595Z,99929.88
2023-05-22T03:47:43.890Z,99937.00
2023-05-22T03:50:12.209Z,99933.69
2023-05-22T03:52:41.934Z,99927.97
2023-05-22T03:55:12.159Z,99929.94
2023-05-22T03:57:41.598Z,99909.84
2023-05-22T04:00:15.140Z,99921.13
2023-05-22T04:02:46.938Z,99925.56
2023-05-22T04:05:15.416Z,99912.38
2023-05-22T04:07:48.316Z,99927.47
2023-05-22T04:10:16.935Z,99926.38
2023-05-22T04:12:47.521Z,99909.63
2023-05-22T04:15:16.009Z,99927.75
2023-05-22T04:17:44.421Z,99927.47
2023-05-22T04:20:13.141Z,99923.09
2023-05-22T04:22:41.598Z,99915.13
2023-05-22T04:25:11.520Z,99933.22
2023-05-22T04:27:40.730Z,99938.19
2023-05-22T04:30:11.446Z,99936.78
2023-05-22T04:32:39.694Z,99932.69
2023-05-22T04:35:10.360Z,99925.25
2023-05-22T04:37:40.806Z,99943.38
2023-05-22T04:40:10.140Z,99928.28
2023-05-22T04:42:39.219Z,99934.31
2023-05-22T04:45:08.895Z,99947.75
2023-05-22T04:47:41.728Z,99955.44
2023-05-22T04:50:10.668Z,99944.47
2023-05-22T04:52:41.970Z,99949.16
2023-05-22T04:55:12.180Z,99958.19
2023-05-22T04:57:40.998Z,99939.81
2023-05-22T05:00:10.242Z,99948.00
2023-05-22T05:02:40.240Z,99936.22
2023-05-22T05:05:08.932Z,99945.25
2023-05-22T05:07:38.824Z,99950.47
2023-05-22T05:10:09.076Z,99940.31
2023-05-22T05:12:39.103Z,99943.59
2023-05-22T05:15:10.477Z,99948.13
2023-05-22T05:17:40.259Z,99947.47
2023-05-22T05:20:11.497Z,99957.00
2023-05-22T05:22:40.476Z,99954.53
2023-05-22T05:25:11.651Z,99944.94
2023-05-22T05:27:40.090Z,99945.53
2023-05-22T05:30:10.772Z,99958.72
2023-05-22T05:32:42.092Z,99963.38
2023-05-22T05:35:10.881Z,99958.03
2023-05-22T05:37:42.031Z,99960.03
2023-05-22T05:40:10.960Z,99958.56
2023-05-22T05:42:41.163Z,99956.56
2023-05-22T05:45:11.522Z,99950.47
2023-05-22T05:47:41.447Z,99952.28
2023-05-22T05:50:11.467Z,99961.63
2023-05-22T05:52:39.782Z,99965.69
2023-05-22T05:55:07.954Z,99965.78
2023-05-22T05:57:38.667Z,99965.25
2023-05-22T06:00:10.636Z,99973.91
2023-05-22T06:02:41.012Z,99974.97
2023-05-22T06:05:10.663Z,99977.28
2023-05-22T06:07:40.593Z,99975.94
2023-05-22T06:10:16.842Z,99968.66
2023-05-22T06:12:44.925Z,99963.16
2023-05-22T06:15:17.634Z,99966.97
2023-05-22T06:17:47.470Z,99967.78
2023-05-22T06:20:16.022Z,99966.53
2023-05-22T06:22:44.180Z,99976.19
2023-05-22T06:25:13.909Z,99975.53
2023-05-22T06:27:42.817Z,99975.59
2023-05-22T06:30:12.486Z,99978.50
2023-05-22T06:32:58.240Z,99970.50
2023-05-22T06:35:26.485Z,99971.72
2023-05-22T06:37:58.986Z,99962.19
2023-05-22T06:40:29.344Z,99968.44
2023-05-22T06:42:59.989Z,99959.44
2023-05-22T06:45:28.552Z,99975.78
2023-05-22T06:47:59.174Z,99972.56
2023-05-22T06:50:27.302Z,99967.84
2023-05-22T06:53:01.447Z,99974.69
2023-05-22T06:55:29.302Z,99977.75
2023-05-22T06:57:57.108Z,99983.19
2023-05-22T07:00:26.141Z,99979.31
2023-05-22T07:02:54.496Z,99975.91
2023-05-22T07:05:24.497Z,99981.97
2023-05-22T07:07:52.578Z,99982.78
2023-05-22T07:10:21.685Z,99977.94
2023-05-22T07:12:49.936Z,99977.25
2023-05-22T07:15:18.677Z,99984.41
2023-05-22T07:17:49.226Z,99977.59
2023-05-22T07:20:18.786Z,99983.28
2023-05-22T07:22:49.804Z,99984.19
2023-05-22T07:25:18.450Z,99984.41
2023-05-22T07:27:48.289Z,99970.09
2023-05-22T07:30:19.866Z,99982.69
2023-05-22T07:32:49.727Z,99975.69
2023-05-22T07:35:18.867Z,99964.28
2023-05-22T07:37:53.259Z,99966.91
2023-05-22T07:40:21.655Z,99971.59
2023-05-22T07:42:50.075Z,99978.22
2023-05-22T07:45:17.969Z,99967.63
2023-05-22T07:47:47.263Z,99973.56
2023-05-22T07:50:15.158Z,99966.28
2023-05-22T07:52:44.313Z,99973.25
2023-05-22T07:55:15.673Z,99976.16
2023-05-22T07:57:44.340Z,99971.56
2023-05-22T08:00:15.830Z,99973.38
2023-05-22T08:02:45.737Z,99968.25
2023-05-22T08:05:15.471Z,99964.00
2023-05-22T08:07:44.682Z,99969.47
2023-05-22T08:10:18.693Z,99979.81
2023-05-22T08:12:46.539Z,99974.94
2023-05-22T08:15:15.802Z,99964.38
2023-05-22T08:17:45.945Z,99971.19
2023-05-22T08:20:14.665Z,99970.03
2023-05-22T08:22:46.504Z,99973.78
2023-05-22T08:25:17.697Z,99960.72
2023-05-22T08:27:48.897Z,99971.84
2023-05-22T08:30:18.440Z,99963.81
2023-05-22T08:32:48.485Z,99974.63
2023-05-22T08:35:17.158Z,99959.72
2023-05-22T08:37:46.241Z,99958.69
2023-05-22T08:40:18.086Z,99964.63
2023-05-22T08:42:46.267Z,99954.09
2023-05-22T08:45:18.437Z,99949.03
2023-05-22T08:47:53.858Z,99957.47
2023-05-22T08:50:23.058Z,99959.53
2023-05-22T08:52:54.074Z,99950.94
2023-05-22T08:55:24.804Z,99956.72
2023-05-22T08:57:55.377Z,99956.81
2023-05-22T09:00:24.863Z,99940.84
2023-05-22T09:02:56.194Z,99954.97
2023-05-22T09:05:27.050Z,99949.97
2023-05-22T09:07:58.396Z,99956.72
2023-05-22T09:10:35.970Z,99947.59
2023-05-22T09:13:08.876Z,99931.50
2023-05-22T09:15:39.124Z,99942.47
2023-05-22T09:18:07.981Z,99941.88
2023-05-22T09:20:39.369Z,99939.41
2023-05-22T09:23:17.720Z,99938.97
2023-05-22T09:25:49.771Z,99919.97
2023-05-22T09:28:20.612Z,99935.41
2023-05-22T09:30:51.084Z,99935.38
2023-05-22T09:33:19.304Z,99935.66
2023-05-22T09:35:49.770Z,99929.50
2023-05-22T09:38:19.188Z,99932.81
2023-05-22T09:40:53.909Z,99927.59
2023-05-22T09:43:23.797Z,99918.63
2023-05-22T09:45:58.982Z,99933.25
2023-05-22T09:48:27.881Z,99928.34
2023-05-22T09:51:02.152Z,99930.66
2023-05-22T09:53:35.028Z,99929.03
2023-05-22T09:56:12.586Z,99919.97
2023-05-22T09:58:47.133Z,99926.97
2023-05-22T10:01:17.559Z,99917.94
2023-05-22T10:03:53.244Z,99922.59
2023-05-22T10:06:24.026Z,99932.25
2023-05-22T10:08:58.224Z,99919.97
2023-05-22T10:11:32.215Z,99925.34
2023-05-22T10:14:01.849Z,99926.22
2023-05-22T10:16:31.195Z,99926.97
2023-05-22T10:19:04.300Z,99931.81
2023-05-22T10:21:33.941Z,99911.06
2023-05-22T10:24:06.552Z,99913.28
2023-05-22T10:26:36.260Z,99920.72
2023-05-22T10:29:12.951Z,99914.72
2023-05-22T10:31:46.905Z,99917.31
2023-05-22T10:34:32.696Z,99907.91
2023-05-22T10:37:19.214Z,99898.97
2023-05-22T10:40:07.283Z,99906.72
2023-05-22T10:42:40.078Z,99898.75
2023-05-22T10:45:09.500Z,99902.06
2023-05-22T10:47:39.682Z,99893.91
2023-05-22T10:50:12.810Z,99906.19
2023-05-22T10:52:41.320Z,99891.06
2023-05-22T10:55:12.318Z,99890.78
2023-05-22T10:57:45.931Z,99888.81
2023-05-22T11:00:20.037Z,99887.44
2023-05-22T11:02:48.238Z,99895.09
2023-05-22T11:05:38.903Z,99887.41
2023-05-22T11:08:30.660Z,99879.41
2023-05-22T11:11:01.918Z,99890.25
2023-05-22T11:13:33.762Z,99882.84
2023-05-22T11:16:06.805Z,99858.25
2023-05-22T11:18:42.970Z,99868.47
2023-05-22T11:21:16.304Z,99879.97
2023-05-22T11:23:47.004Z,99879.53
2023-05-22T11:26:28.007Z,99875.09
2023-05-22T11:29:02.012Z,99882.84
2023-05-22T11:31:36.259Z,99874.63
2023-05-22T11:34:04.719Z,99874.53
2023-05-22T11:36:33.883Z,99877.41
2023-05-22T11:39:05.763Z,99873.66
2023-05-22T11:41:34.880Z,99865.44
2023-05-22T11:44:06.407Z,99852.34
2023-05-22T11:46:40.424Z,99863.94
2023-05-22T11:49:13.176Z,99865.41
2023-05-22T11:51:45.746Z,99853.25
2023-05-22T11:54:18.108Z,99854.06
2023-05-22T11:56:49.316Z,99831.84
2023-05-22T11:59:22.840Z,99847.28
2023-05-22T12:01:53.210Z,99844.84
2023-05-22T12:04:21.973Z,99840.53
2023-05-22T12:06:50.289Z,99832.94
2023-05-22T12:09:18.932Z,99833.34
2023-05-22T12:11:49.069Z,99832.84
2023-05-22T12:14:18.637Z,99829.31
2023-05-22T12:16:46.436Z,99832.66
2023-05-22T12:19:16.074Z,99822.34
2023-05-22T12:21:46.320Z,99825.88
2023-05-22T12:24:16.571Z,99820.38
2023-05-22T12:26:51.385Z,99820.72
2023-05-22T12:29:23.296Z,99813.53
2023-05-22T12:31:52.574Z,99823.78
2023-05-22T12:34:20.673Z,99813.25
2023-05-22T12:36:49.587Z,99809.63
2023-05-22T12:39:20.161Z,99810.88
2023-05-22T12:41:48.326Z,99806.00
2023-05-22T12:44:17.654Z,99807.84
2023-05-22T12:46:47.799Z,99795.38
2023-05-22T12:49:16.283Z,99807.16
2023-05-22T12:51:45.420Z,99802.84
2023-05-22T12:54:15.710Z,99788.69
2023-05-22T12:56:45.479Z,99798.44
2023-05-22T12:59:19.488Z,99797.72
2023-05-22T13:01:51.714Z,99797.75
2023-05-22T13:04:20.629Z,99787.09
2023-05-22T13:06:48.556Z,99784.59
2023-05-22T13:09:21.371Z,99796.84
2023-05-22T13:11:50.521Z,99798.56
2023-05-22T13:14:19.560Z,99792.25
2023-05-22T13:16:47.822Z,99793.75
2023-05-22T13:19:20.175Z,99792.91
2023-05-22T13:21:48.825Z,99785.13
2023-05-22T13:24:16.975Z,99790.03
2023-05-22T13:26:44.836Z,99793.22
2023-05-22T13:29:38.916Z,99790.75
2023-05-22T13:32:10.454Z,99789.59
2023-05-22T13:34:41.421Z,99787.84
2023-05-22T13:37:10.963Z,99784.63
2023-05-22T13:39:39.736Z,99774.63
2023-05-22T13:42:08.313Z,99790.84
2023-05-22T13:44:36.635Z,99783.78
2023-05-22T13:47:06.150Z,99778.19
2023-05-22T13:49:35.195Z,99777.84
2023-05-22T13:52:07.451Z,99784.84
2023-05-22T13:54:35.909Z,99780.25
2023-05-22T13:57:10.424Z,99766.97
2023-05-22T14:00:04.394Z,99774.34
2023-05-22T14:02:32.426Z,99777.81
2023-05-22T14:05:01.498Z,99765.28
2023-05-22T14:07:31.219Z,99775.50
2023-05-22T14:10:01.636Z,99758.22
2023-05-22T14:12:37.196Z,99758.31
2023-05-22T14:15:05.645Z,99760.03
2023-05-22T14:17:35.078Z,99751.31
2023-05-22T14:20:03.888Z,99753.91
2023-05-22T14:22:47.897Z,99747.19
2023-05-22T14:25:28.911Z,99746.66
2023-05-22T14:27:58.684Z,99737.13
2023-05-22T14:30:26.832Z,99727.31
2023-05-22T14:32:56.412Z,99723.03
2023-05-22T14:35:33.610Z,99719.38
2023-05-22T14:38:04.910Z,99721.41
2023-05-22T14:40:34.493Z,99727.31
2023-05-22T14:43:04.861Z,99731.91
2023-05-22T14:45:33.956Z,99731.09
2023-05-22T14:48:03.717Z,99744.41
2023-05-22T14:50:40.291Z,99737.97
2023-05-22T14:53:16.258Z,99722.63
2023-05-22T14:55:44.346Z,99748.19
2023-05-22T14:58:13.170Z,99731.34
2023-05-22T15:00:43.606Z,99747.66
2023-05-22T15:03:13.579Z,99740.56
2023-05-22T15:05:43.031Z,99739.50
2023-05-22T15:08:14.184Z,99742.91
2023-05-22T15:10:44.333Z,99751.19
2023-05-22T15:13:23.614Z,99742.75
2023-05-22T15:15:54.346Z,99749.91
2023-05-22T15:18:25.307Z,99746.72
2023-05-22T15:20:55.060Z,99761.44
2023-05-22T15:23:26.592Z,99760.63
2023-05-22T15:25:59.201Z,99753.31
2023-05-22T15:28:27.952Z,99769.75
2023-05-22T15:30:56.784Z,99763.78
2023-05-22T15:33:30.062Z,99759.78
2023-05-22T15:36:00.289Z,99757.56
2023-05-22T15:38:31.153Z,99751.94
2023-05-22T15:41:00.507Z,99755.72
2023-05-22T15:43:30.919Z,99762.28
2023-05-22T15:46:03.052Z,99753.03
2023-05-22T15:48:32.417Z,99748.63
2023-05-22T15:51:01.365Z,99764.53
2023-05-22T15:53:32.422Z,99755.94
2023-05-22T15:56:01.423Z,99755.63
2023-05-22T15:58:30.435Z,99760.84
2023-05-22T16:00:59.939Z,99759.72
2023-05-22T16:03:29.524Z,99758.44
2023-05-22T16:06:00.676Z,99773.44
2023-05-22T16:08:32.184Z,99788.09
2023-05-22T16:11:04.309Z,99789.50
2023-05-22T16:13:34.788Z,99793.63
2023-05-22T16:16:05.972Z,99801.41
2023-05-22T16:18:40.679Z,99813.78
2023-05-22T16:21:12.094Z,99819.78
2023-05-22T16:23:43.536Z,99823.38
2023-05-22T16:26:21.605Z,99827.31
2023-05-22T16:28:52.054Z,99808.88
2023-05-22T16:31:22.536Z,99805.16
2023-05-22T16:33:53.299Z,99812.13
2023-05-22T16:36:28.138Z,99764.75
2023-05-22T16:38:57.249Z,99812.03
2023-05-22T16:41:37.800Z,99817.03
2023-05-22T16:44:09.341Z,99821.72
2023-05-22T16:46:39.030Z,99835.19
2023-05-22T16:49:08.465Z,99827.03
2023-05-22T16:51:36.994Z,99841.25
2023-05-22T16:54:07.628Z,99843.78
2023-05-22T16:56:38.004Z,99853.97
2023-05-22T16:59:12.383Z,99843.47
2023-05-22T17:01:41.003Z,99856.75
2023-05-22T17:04:14.789Z,99814.06
2023-05-22T17:06:43.714Z,99855.16
2023-05-22T17:09:14.653Z,99824.97
2023-05-22T17:11:44.461Z,99839.97
2023-05-22T17:14:14.680Z,99847.59
2023-05-22T17:16:42.796Z,99851.53
2023-05-22T17:19:13.536Z,99859.84
2023-05-22T17:21:47.079Z,99874.06
2023-05-22T17:24:17.333Z,99888.28
2023-05-22T17:26:48.068Z,99893.19
2023-05-22T17:29:16.745Z,99898.25
2023-05-22T17:31:56.590Z,99901.72
2023-05-22T17:34:25.790Z,99903.66
2023-05-22T17:36:58.231Z,99940.94
2023-05-22T17:39:36.946Z,99967.84
2023-05-22T17:42:15.789Z,99982.25
2023-05-22T17:44:47.830Z,99979.00
2023-05-22T17:47:22.989Z,99982.94
2023-05-22T17:49:54.227Z,99991.13
2023-05-22T17:52:23.616Z,99990.19
2023-05-22T17:54:53.314Z,99997.34
2023-05-22T17:57:26.378Z,99988.22
2023-05-22T17:59:56.336Z,99941.94
2023-05-22T18:02:28.381Z,99998.66
2023-05-22T18:04:59.768Z,99978.72
2023-05-22T18:07:27.895Z,99973.13
2023-05-22T18:09:58.472Z,99980.19
2023-05-22T18:12:31.806Z,99971.63
2023-05-22T18:15:00.610Z,99968.31
2023-05-22T18:17:37.028Z,99959.31
2023-05-22T18:20:09.242Z,99956.31
2023-05-22T18:22:39.009Z,99956.81
2023-05-22T18:25:07.977Z,99952.19
2023-05-22T18:27:51.756Z,99958.44
2023-05-22T18:30:23.274Z,99920.63
2023-05-22T18:32:55.551Z,99918.25
2023-05-22T18:35:25.785Z,99938.13
2023-05-22T18:37:55.156Z,99913.97
2023-05-22T18:40:24.445Z,99936.78
2023-05-22T18:42:59.072Z,99883.13
2023-05-22T18:45:29.033Z,99961.75
2023-05-22T18:48:04.850Z,99911.09
2023-05-22T18:50:40.799Z,99946.09
2023-05-22T18:53:10.202Z,99935.13
2023-05-22T18:55:38.659Z,99955.78
2023-05-22T18:58:08.115Z,99931.84
2023-05-22T19:00:39.947Z,99927.81
2023-05-22T19:03:12.529Z,99935.28
2023-05-22T19:05:45.714Z,99948.03
2023-05-22T19:08:13.999Z,99938.91
2023-05-22T19:10:46.049Z,99950.88
2023-05-22T19:13:16.500Z,99941.31
2023-05-22T19:15:47.122Z,99931.09
2023-05-22T19:18:15.107Z,99932.06
2023-05-22T19:20:47.623Z,99949.44
2023-05-22T19:23:18.276Z,99933.06
2023-05-22T19:25:50.352Z,99957.72
2023-05-22T19:28:27.699Z,99955.06
2023-05-22T19:31:05.678Z,99936.69
2023-05-22T19:33:43.938Z,99943.50
2023-05-22T19:36:12.995Z,99929.09
2023-05-22T19:38:47.349Z,99927.88
2023-05-22T19:41:17.015Z,99954.81
2023-05-22T19:43:47.584Z,99952.44
2023-05-22T19:46:16.992Z,99944.09
2023-05-22T19:48:47.193Z,99957.66
2023-05-22T19:51:21.154Z,99948.22
2023-05-22T19:53:49.474Z,99956.84
2023-05-22T19:56:20.333Z,99953.41
2023-05-22T19:58:53.403Z,99958.94
2023-05-22T20:01:24.311Z,99972.72
2023-05-22T20:03:56.323Z,99972.63
2023-05-22T20:06:24.625Z,99961.97
2023-05-22T20:08:53.213Z,99975.88
2023-05-22T20:11:22.248Z,99980.16
2023-05-22T20:13:54.513Z,99983.28
2023-05-22T20:16:26.873Z,99979.50
2023-05-22T20:19:00.696Z,99988.28
2023-05-22T20:21:28.626Z,99984.13
2023-05-22T20:24:01.079Z,99984.31
2023-05-22T20:26:31.588Z,99989.06
2023-05-22T20:29:01.415Z,99994.69
2023-05-22T20:31:29.427Z,100003.97
2023-05-22T20:34:05.472Z,99997.28
2023-05-22T20:36:40.814Z,100008.31
2023-05-22T20:39:10.748Z,100019.44
2023-05-22T20:41:43.224Z,100023.28
2023-05-22T20:44:34.236Z,100017.31
2023-05-22T20:47:03.252Z,100017.22
2023-05-22T20:49:36.896Z,100016.41
2023-05-22T20:52:06.193Z,100024.69
2023-05-22T20:54:37.347Z,100035.13
2023-05-22T20:57:08.900Z,100011.53
2023-05-22T20:59:38.204Z,100024.69
2023-05-22T21:02:07.285Z,100023.75
2023-05-22T21:04:41.188Z,100027.75
2023-05-22T21:07:11.415Z,100026.03
2023-05-22T21:09:42.025Z,100024.66
2023-05-22T21:12:13.690Z,100021.81
2023-05-22T21:14:47.938Z,100014.72
2023-05-22T21:17:20.218Z,100024.50
2023-05-22T21:19:56.215Z,100016.72
2023-05-22T21:22:24.545Z,100007.84
2023-05-22T21:24:53.319Z,100021.41
2023-05-22T21:27:23.535Z,100018.31
2023-05-22T21:29:55.176Z,100023.44
2023-05-22T21:32:28.140Z,100028.69
2023-05-22T21:34:59.665Z,100018.84
2023-05-22T21:37:28.052Z,100023.09
2023-05-22T21:39:56.683Z,100020.34
2023-05-22T21:42:26.427Z,100008.19
2023-05-22T21:44:56.630Z,100028.81
2023-05-22T21:47:25.281Z,100034.38
2023-05-22T21:49:53.195Z,100035.72
2023-05-22T21:52:22.500Z,100037.44
2023-05-22T21:54:50.563Z,100040.41
2023-05-22T21:57:19.312Z,100048.16
2023-05-22T21:59:53.567Z,100038.63
2023-05-22T22:02:25.452Z,100047.00
2023-05-22T22:04:56.067Z,100050.03
2023-05-22T22:07:25.987Z,100054.63
2023-05-22T22:09:53.734Z,100053.72
2023-05-22T22:12:24.820Z,100041.69
2023-05-22T22:14:55.746Z,100052.41
2023-05-22T22:17:33.326Z,100055.81
2023-05-22T22:20:01.264Z,100057.72
2023-05-22T22:22:30.777Z,100055.06
2023-05-22T22:25:00.968Z,100049.66
2023-05-22T22:27:29.252Z,100037.09
2023-05-22T22:29:57.297Z,100046.53
2023-05-22T22:32:27.446Z,100053.50
2023-05-22T22:34:55.283Z,100053.22
2023-05-22T22:37:24.859Z,100048.81
2023-05-22T22:39:53.266Z,100065.63
2023-05-22T22:42:22.049Z,100064.63
2023-05-22T22:44:50.289Z,100067.75
2023-05-22T22:47:18.745Z,100070.06
2023-05-22T22:49:53.167Z,100072.22
2023-05-22T22:52:21.462Z,100087.97
2023-05-22T22:54:50.184Z,100060.72
2023-05-22T22:57:20.053Z,100081.34
2023-05-22T22:59:48.534Z,100079.59
2023-05-22T23:02:16.914Z,100072.53
2023-05-22T23:04:45.990Z,100085.66
2023-05-22T23:07:15.366Z,100104.50
2023-05-22T23:09:43.227Z,100094.91
2023-05-22T23:12:12.668Z,100084.50
2023-05-22T23:14:41.137Z,100085.38
2023-05-22T23:17:10.566Z,100096.06
2023-05-22T23:19:46.346Z,100098.84
2023-05-22T23:22:17.811Z,100094.78
2023-05-22T23:24:46.344Z,100096.63
2023-05-22T23:27:15.342Z,100112.88
2023-05-22T23:29:46.722Z,100103.78
2023-05-22T23:32:15.562Z,100092.44
2023-05-22T23:34:43.930Z,100088.19
2023-05-22T23:37:12.994Z,100093.09
2023-05-22T23:39:42.351Z,100101.56
2023-05-22T23:42:12.033Z,100106.34
2023-05-22T23:44:41.713Z,100102.16
2023-05-22T23:47:10.419Z,100106.00
2023-05-22T23:49:38.575Z,100106.34
2023-05-22T23:52:09.081Z,100095.94
2023-05-22T23:54:37.026Z,100102.78
2023-05-22T23:57:07.518Z,100110.72
2023-05-22T23:59:41.010Z,100107.13
